createdAt,value
2022-08-12T00:00:18.319Z,31.34
2022-08-12T00:03:23.105Z,31.16
2022-08-12T00:06:28.018Z,31.28
2022-08-12T00:09:32.521Z,30.98
2022-08-12T00:12:37.489Z,31.27
2022-08-12T00:15:42.441Z,31.29
2022-08-12T00:18:47.671Z,31.11
2022-08-12T00:21:51.917Z,31.25
2022-08-12T00:24:56.692Z,31.23
2022-08-12T00:28:01.982Z,31.17
2022-08-12T00:31:06.477Z,31.27
2022-08-12T00:34:11.255Z,31.36
2022-08-12T00:37:16.291Z,31.47
2022-08-12T00:40:23.187Z,31.28
2022-08-12T00:43:10.265Z,31.37
2022-08-12T00:46:14.970Z,31.18
2022-08-12T00:49:01.974Z,31.26
2022-08-12T00:52:09.170Z,31.30
2022-08-12T00:54:58.081Z,31.64
2022-08-12T00:57:47.939Z,31.27
2022-08-12T01:00:34.778Z,31.40
2022-08-12T01:03:21.334Z,31.30
2022-08-12T01:06:26.744Z,31.57
2022-08-12T01:09:33.422Z,31.34
2022-08-12T01:12:19.890Z,31.59
2022-08-12T01:15:06.481Z,31.66
2022-08-12T01:17:52.665Z,31.65
2022-08-12T01:21:23.126Z,31.93
2022-08-12T01:24:31.236Z,31.81
2022-08-12T01:27:20.078Z,32.06
2022-08-12T01:30:08.801Z,31.94
2022-08-12T01:32:56.246Z,31.62
2022-08-12T01:35:57.857Z,31.93
2022-08-12T01:38:59.355Z,31.85
2022-08-12T01:41:53.730Z,31.88
2022-08-12T01:44:40.293Z,32.01
2022-08-12T01:47:41.109Z,31.94
2022-08-12T01:50:36.933Z,31.56
2022-08-12T01:53:26.452Z,31.88
2022-08-12T01:56:12.524Z,31.49
2022-08-12T01:59:22.046Z,31.52
2022-08-12T02:02:22.963Z,31.89
2022-08-12T02:05:33.363Z,31.81
2022-08-12T02:09:06.660Z,31.76
2022-08-12T02:11:55.684Z,32.02
2022-08-12T02:14:51.839Z,31.62
2022-08-12T02:17:55.206Z,31.97
2022-08-12T02:21:04.039Z,31.84
2022-08-12T02:23:50.826Z,31.94
2022-08-12T02:26:39.892Z,32.04
2022-08-12T02:29:26.025Z,32.07
2022-08-12T02:32:12.513Z,31.99
2022-08-12T02:34:59.216Z,31.77
2022-08-12T02:37:47.559Z,32.13
2022-08-12T02:40:37.030Z,32.29
2022-08-12T02:43:22.942Z,32.18
2022-08-12T02:46:14.539Z,32.35
2022-08-12T02:49:03.535Z,32.18
2022-08-12T02:51:50.854Z,32.15
2022-08-12T02:54:37.785Z,31.93
2022-08-12T02:57:24.927Z,32.31
2022-08-12T03:00:13.549Z,32.35
2022-08-12T03:03:01.140Z,32.49
2022-08-12T03:05:58.254Z,32.40
2022-08-12T03:08:52.559Z,32.39
2022-08-12T03:11:45.416Z,32.51
2022-08-12T03:14:35.970Z,32.35
2022-08-12T03:17:35.081Z,32.67
2022-08-12T03:20:26.724Z,32.52
2022-08-12T03:23:23.094Z,32.74
2022-08-12T03:26:16.514Z,32.67
2022-08-12T03:29:06.665Z,32.75
2022-08-12T03:31:54.001Z,32.89
2022-08-12T03:34:40.899Z,32.88
2022-08-12T03:37:30.424Z,32.72
2022-08-12T03:40:36.278Z,32.87
2022-08-12T03:43:46.051Z,33.04
2022-08-12T03:46:55.923Z,32.88
2022-08-12T03:50:00.513Z,32.99
2022-08-12T03:53:04.958Z,32.97
2022-08-12T03:56:10.322Z,33.17
2022-08-12T03:59:17.314Z,33.22
2022-08-12T04:02:03.512Z,33.11
2022-08-12T04:04:50.136Z,33.10
2022-08-12T04:07:36.009Z,33.14
2022-08-12T04:10:22.421Z,33.10
2022-08-12T04:13:19.798Z,33.11
2022-08-12T04:16:08.009Z,33.40
2022-08-12T04:18:54.040Z,33.22
2022-08-12T04:21:42.115Z,33.25
2022-08-12T04:24:50.462Z,33.05
2022-08-12T04:27:36.704Z,33.52
2022-08-12T04:30:32.282Z,33.51
2022-08-12T04:33:19.980Z,33.32
2022-08-12T04:36:06.402Z,33.44
2022-08-12T04:38:56.473Z,33.73
2022-08-12T04:41:50.330Z,33.53
2022-08-12T04:44:45.130Z,33.79
2022-08-12T04:47:30.906Z,33.74
2022-08-12T04:50:34.037Z,33.72
2022-08-12T04:53:21.822Z,33.79
2022-08-12T04:56:08.476Z,33.77
2022-08-12T04:58:55.398Z,33.84
2022-08-12T05:01:41.553Z,33.95
2022-08-12T05:04:27.852Z,33.81
2022-08-12T05:07:14.406Z,33.96
2022-08-12T05:10:02.601Z,34.14
2022-08-12T05:12:53.011Z,34.15
2022-08-12T05:16:04.302Z,34.05
2022-08-12T05:18:46.204Z,34.20
2022-08-12T05:21:34.116Z,34.06
2022-08-12T05:24:20.016Z,34.12
2022-08-12T05:27:05.908Z,34.21
2022-08-12T05:30:06.502Z,34.28
2022-08-12T05:32:59.033Z,34.40
2022-08-12T05:35:47.734Z,34.29
2022-08-12T05:38:52.888Z,34.16
2022-08-12T05:41:39.648Z,34.07
2022-08-12T05:44:25.996Z,34.31
2022-08-12T05:47:14.763Z,34.21
2022-08-12T05:50:00.712Z,34.11
2022-08-12T05:52:48.193Z,34.27
2022-08-12T05:55:35.213Z,34.23
2022-08-12T05:58:21.373Z,34.46
2022-08-12T06:02:09.790Z,34.63
2022-08-12T06:04:14.280Z,34.57
2022-08-12T06:07:01.867Z,34.69
2022-08-12T06:09:47.894Z,34.81
2022-08-12T06:12:33.917Z,34.70
2022-08-12T06:15:20.748Z,34.46
2022-08-12T06:18:14.110Z,34.40
2022-08-12T06:21:02.597Z,34.77
2022-08-12T06:23:49.739Z,34.82
2022-08-12T06:26:35.876Z,34.66
2022-08-12T06:30:07.318Z,34.52
2022-08-12T06:32:28.833Z,34.79
2022-08-12T06:51:10.545Z,36.66
2022-08-12T06:53:58.017Z,36.67
2022-08-12T06:57:03.747Z,36.34
2022-08-12T06:59:51.139Z,36.08
2022-08-12T07:02:37.443Z,35.74
2022-08-12T07:05:27.391Z,35.64
2022-08-12T13:15:59.790Z,30.90
2022-08-12T13:18:47.417Z,30.61
2022-08-12T13:21:36.675Z,30.21
2022-08-12T13:24:31.709Z,30.10
2022-08-12T13:27:18.759Z,29.73
2022-08-12T13:30:10.752Z,29.24
2022-08-12T13:32:58.928Z,29.17
2022-08-12T13:36:05.536Z,29.13
2022-08-12T13:38:54.249Z,28.96
2022-08-12T13:41:40.933Z,29.24
2022-08-12T13:44:27.312Z,28.82
2022-08-12T13:47:19.538Z,28.76
2022-08-12T13:50:09.388Z,28.77
2022-08-12T13:52:56.630Z,28.98
2022-08-12T13:55:47.684Z,28.32
2022-08-12T13:58:35.093Z,28.63
2022-08-12T14:01:22.141Z,28.37
2022-08-12T14:04:11.683Z,28.46
2022-08-12T14:07:01.388Z,28.36
2022-08-12T14:10:16.342Z,28.34
2022-08-12T14:13:10.401Z,28.33
2022-08-12T14:16:04.610Z,28.26
2022-08-12T14:18:51.236Z,28.28
2022-08-12T14:22:00.741Z,28.40
2022-08-12T14:24:43.753Z,28.54
2022-08-12T14:28:03.732Z,28.60
2022-08-12T14:30:36.561Z,28.16
2022-08-12T14:33:24.577Z,28.28
2022-08-12T14:36:14.465Z,28.36
2022-08-12T14:39:02.414Z,28.31
2022-08-12T14:41:57.056Z,28.35
2022-08-12T14:44:59.000Z,28.30
2022-08-12T14:47:58.284Z,28.09
2022-08-12T14:52:10.448Z,28.17
2022-08-12T14:56:26.246Z,28.33
2022-08-12T14:57:19.868Z,28.37
2022-08-12T15:00:29.032Z,28.16
2022-08-12T15:03:15.591Z,28.21
2022-08-12T15:06:43.819Z,27.94
2022-08-12T15:09:16.172Z,28.26
2022-08-12T15:12:04.087Z,28.17
2022-08-12T15:14:50.445Z,28.50
2022-08-12T15:17:59.351Z,28.33
2022-08-12T15:20:43.717Z,28.30
2022-08-12T15:23:32.753Z,28.44
2022-08-12T15:26:20.630Z,28.41
2022-08-12T15:29:12.326Z,30.24
2022-08-12T15:32:04.447Z,29.22
2022-08-12T15:34:56.841Z,31.35
2022-08-12T15:37:58.885Z,30.88
2022-08-12T15:40:50.543Z,31.72
2022-08-12T15:44:16.120Z,33.21
2022-08-12T15:46:42.569Z,33.00
2022-08-12T15:49:28.792Z,32.52
2022-08-12T15:52:30.199Z,33.22
2022-08-12T15:55:18.149Z,32.89
2022-08-12T15:58:07.704Z,33.86
2022-08-12T16:00:54.230Z,33.88
2022-08-12T16:04:00.282Z,34.45
2022-08-12T16:10:04.834Z,37.64
2022-08-12T16:12:56.538Z,40.20
2022-08-12T16:15:51.088Z,38.49
2022-08-12T16:18:49.009Z,37.27
2022-08-12T16:21:50.518Z,37.67
2022-08-12T16:24:43.648Z,37.65
2022-08-12T16:27:31.667Z,37.94
2022-08-12T16:30:39.923Z,38.20
2022-08-12T16:33:59.436Z,38.64
2022-08-12T16:36:47.651Z,38.27
2022-08-12T16:39:40.124Z,38.48
2022-08-12T16:42:53.603Z,38.71
2022-08-12T16:46:07.931Z,38.83
2022-08-12T16:48:55.458Z,39.13
2022-08-12T16:51:46.568Z,39.25
2022-08-12T16:54:36.353Z,39.33
2022-08-12T16:57:32.439Z,39.67
2022-08-12T17:00:29.417Z,39.79
2022-08-12T17:03:28.654Z,39.96
2022-08-12T17:06:16.879Z,40.09
2022-08-12T17:09:08.390Z,40.11
2022-08-12T17:11:55.350Z,40.21
2022-08-12T17:14:43.121Z,40.45
2022-08-12T17:17:39.800Z,40.83
2022-08-12T17:20:36.571Z,41.17
2022-08-12T17:23:33.233Z,41.25
2022-08-12T17:26:34.574Z,40.91
2022-08-12T17:29:24.176Z,41.40
2022-08-12T17:32:30.590Z,41.39
2022-08-12T17:35:37.101Z,41.43
2022-08-12T17:38:24.080Z,41.88
2022-08-12T17:41:23.354Z,41.83
2022-08-12T17:44:16.763Z,42.17
2022-08-12T17:47:16.832Z,42.48
2022-08-12T17:50:08.754Z,42.38
2022-08-12T17:53:03.258Z,42.45
2022-08-12T17:55:59.917Z,42.57
2022-08-12T17:58:51.314Z,42.71
2022-08-12T18:01:46.305Z,43.06
2022-08-12T18:04:35.614Z,43.21
2022-08-12T18:07:23.606Z,42.98
2022-08-12T18:10:38.889Z,43.63
2022-08-12T18:13:40.177Z,43.53
2022-08-12T18:16:29.100Z,43.67
2022-08-12T18:19:15.309Z,43.78
2022-08-12T18:22:02.999Z,44.13
2022-08-12T18:24:52.341Z,44.27
2022-08-12T18:27:49.129Z,44.01
2022-08-12T18:30:59.643Z,44.47
2022-08-12T18:33:49.900Z,44.37
2022-08-12T18:36:36.733Z,44.32
2022-08-12T18:39:22.859Z,44.33
2022-08-12T18:42:12.671Z,44.37
2022-08-12T18:45:02.338Z,44.71
2022-08-12T18:47:50.109Z,44.56
2022-08-12T18:50:49.127Z,44.79
2022-08-12T18:54:07.504Z,44.73
2022-08-12T18:56:45.531Z,45.05
2022-08-12T19:00:02.301Z,45.35
2022-08-12T19:02:40.755Z,45.38
2022-08-12T19:05:53.782Z,45.15
2022-08-12T19:08:36.252Z,45.38
2022-08-12T19:11:45.288Z,45.40
2022-08-12T19:14:33.144Z,45.57
2022-08-12T19:17:20.726Z,45.35
2022-08-12T19:20:07.392Z,45.52
2022-08-12T19:23:02.145Z,45.47
2022-08-12T19:26:01.278Z,45.88
2022-08-12T19:28:49.396Z,46.00
2022-08-12T19:32:01.910Z,45.98
2022-08-12T19:38:06.957Z,46.57
2022-08-12T19:40:55.334Z,46.61
2022-08-12T19:44:00.694Z,46.62
2022-08-12T19:46:53.034Z,46.80
2022-08-12T19:49:50.064Z,46.92
2022-08-12T19:52:36.315Z,47.00
2022-08-12T19:55:22.641Z,46.90
2022-08-12T19:58:17.868Z,47.14
2022-08-12T20:01:11.044Z,47.18
2022-08-12T20:03:59.343Z,47.30
2022-08-12T20:06:51.560Z,47.37
2022-08-12T20:09:41.237Z,47.56
2022-08-12T20:12:41.359Z,47.51
2022-08-12T20:15:44.893Z,47.50
2022-08-12T20:18:44.540Z,47.65
2022-08-12T20:21:40.340Z,47.88
2022-08-12T20:24:31.219Z,47.88
2022-08-12T20:27:29.613Z,47.67
2022-08-12T20:30:52.641Z,47.96
2022-08-12T20:33:32.825Z,48.08
2022-08-12T20:36:42.672Z,49.02
2022-08-12T20:39:52.565Z,48.40
2022-08-12T20:42:37.299Z,49.04
2022-08-12T20:45:25.863Z,48.49
2022-08-12T20:48:21.573Z,48.66
2022-08-12T20:51:13.426Z,48.87
2022-08-12T20:54:09.660Z,49.20
2022-08-12T20:56:58.009Z,49.06
2022-08-12T20:59:49.555Z,49.25
2022-08-12T21:02:35.810Z,49.10
2022-08-12T21:06:11.795Z,49.13
2022-08-12T21:08:52.741Z,49.39
2022-08-12T21:11:54.256Z,49.09
2022-08-12T21:14:53.932Z,49.09
2022-08-12T21:18:09.657Z,49.29
2022-08-12T21:21:24.072Z,49.17
2022-08-12T21:24:11.501Z,49.06
2022-08-12T21:27:07.518Z,49.29
2022-08-12T21:29:55.057Z,49.23
2022-08-12T21:32:43.442Z,49.29
2022-08-12T21:35:35.856Z,49.46
2022-08-12T21:38:30.599Z,49.60
2022-08-12T21:41:21.057Z,49.74
2022-08-12T21:44:24.495Z,49.60
2022-08-12T21:47:20.813Z,49.71
2022-08-12T21:50:09.041Z,49.57
2022-08-12T21:52:57.575Z,49.64
2022-08-12T21:55:44.093Z,49.50
2022-08-12T21:58:29.881Z,49.99
2022-08-12T22:01:20.350Z,49.70
2022-08-12T22:04:27.908Z,49.94
2022-08-12T22:07:14.091Z,49.81
2022-08-12T22:10:06.317Z,50.07
2022-08-12T22:12:58.512Z,50.00
2022-08-12T22:15:53.112Z,50.05
2022-08-12T22:18:44.395Z,50.07
2022-08-12T22:21:37.943Z,50.32
2022-08-12T22:24:35.006Z,49.95
2022-08-12T22:27:32.671Z,50.23
2022-08-12T22:30:38.493Z,50.14
2022-08-12T22:33:25.099Z,50.55
2022-08-12T22:36:11.335Z,50.50
2022-08-12T22:38:59.167Z,50.53
2022-08-12T22:42:03.826Z,50.47
2022-08-12T22:45:16.123Z,50.68
2022-08-12T22:48:02.525Z,50.47
2022-08-12T22:50:49.088Z,50.60
2022-08-12T22:53:36.763Z,50.83
2022-08-12T22:56:30.673Z,50.79
2022-08-12T22:59:17.734Z,50.79
2022-08-12T23:02:07.782Z,50.67
2022-08-12T23:04:58.384Z,50.94
2022-08-12T23:07:58.955Z,50.94
2022-08-12T23:10:47.096Z,50.90
2022-08-12T23:13:45.846Z,51.16
2022-08-12T23:16:33.935Z,50.96
2022-08-12T23:19:38.414Z,51.40
2022-08-12T23:23:05.504Z,50.89
2022-08-12T23:25:54.584Z,51.19
2022-08-12T23:29:00.401Z,51.14
2022-08-12T23:32:06.297Z,51.33
2022-08-12T23:34:56.044Z,51.26
2022-08-12T23:37:53.949Z,51.33
2022-08-12T23:40:41.081Z,51.25
2022-08-12T23:43:38.806Z,51.60
2022-08-12T23:46:27.252Z,51.28
2022-08-12T23:49:55.214Z,51.45
2022-08-12T23:52:19.600Z,51.36
2022-08-12T23:55:24.832Z,51.66
2022-08-12T23:58:21.341Z,51.61
